Terminal Aerodrome Forecast
Issued by NWS

Home | Current Version | Previous Version | Text Only | Print | Product List | Glossary On
Versions: 1 2 3 4 5 6 7 8 9 10 11 12 13 14 15 16 17 18 19 20 21 22 23 24 25 26 27 28 29 30 31 32
000
FTUS43 KDLH 211600 AAC
TAFHIB
TAF AMD
KHIB 211619Z 2116/2212 10010KT P6SM BKN025
      TEMPO 2116/2120 SCT025
     FM212000 12009KT P6SM VCTS SCT025CB OVC050
     FM212300 13006KT P6SM VCSH BKN015
     FM220100 13006KT P6SM BKN015
     FM220500 11003KT P6SM SCT015=

USA.gov is the U.S. government's official web portal to all federal, state and local government web resources and services.